Time;durP1;ratioP1;P1;durP2;ratioP2;P2;SDS_P1;SDS_P2;PMS_P1;PMS_P2;Temp;Humidity;BMP_temperature;BMP_pressure;BME280_temperature;BME280_humidity;BME280_pressure;Samples;Min_cycle;Max_cycle;Signal;HPM_P1;HPM_P2
2023/12/01 00:01:24;;;;;;;12.37;7.43;;;10.30;99.90;;;11.62;49.59;99853.28;4854261;28;98009;-53
2023/12/01 00:03:50;;;;;;;15.03;6.87;;;10.30;99.90;;;11.58;51.16;99862.31;4851394;28;100474;-50
2023/12/01 00:21:00;;;;;;;17.80;8.27;;;9.80;99.90;;;11.06;53.13;99885.22;4846094;28;101766;-60
2023/12/01 00:23:26;;;;;;;12.10;6.03;;;9.70;99.90;;;11.00;53.42;99880.28;4851029;28;116924;-49
2023/12/01 00:25:51;;;;;;;11.13;5.90;;;9.60;99.90;;;10.99;53.92;99892.63;4859851;28;97241;-58
2023/12/01 00:28:17;;;;;;;9.43;5.47;;;9.60;99.90;;;11.13;54.71;99893.69;4868580;28;104305;-55
2023/12/01 00:30:43;;;;;;;9.30;4.93;;;9.70;99.90;;;11.16;54.91;99889.13;4851713;28;97104;-59
2023/12/01 00:33:09;;;;;;;11.37;5.97;;;9.80;99.90;;;11.28;54.45;99890.28;4870250;28;98012;-60
2023/12/01 00:35:35;;;;;;;12.50;4.90;;;10.00;99.90;;;11.30;54.18;99899.00;4860586;28;97723;-58
2023/12/01 00:38:01;;;;;;;11.47;5.60;;;9.90;99.90;;;11.47;54.29;99906.91;4866326;28;97690;-58
2023/12/01 00:40:26;;;;;;;8.70;4.97;;;10.20;99.90;;;11.62;53.75;99906.13;4861581;28;97903;-58
2023/12/01 00:42:52;;;;;;;6.77;4.40;;;10.40;99.90;;;11.65;54.09;99909.53;4857382;28;107830;-53
2023/12/01 00:45:18;;;;;;;6.83;4.37;;;10.40;99.90;;;11.81;53.55;99899.91;4839580;28;97500;-53
2023/12/01 00:47:44;;;;;;;7.13;4.43;;;10.60;99.90;;;12.05;53.16;99892.47;4863405;28;96733;-58
2023/12/01 00:50:10;;;;;;;7.90;4.57;;;11.10;99.90;;;12.33;52.16;99891.81;4856961;28;97438;-59
2023/12/01 00:52:36;;;;;;;7.47;4.00;;;11.60;99.90;;;12.62;51.46;99899.00;4853026;28;97760;-57
2023/12/01 00:55:02;;;;;;;8.37;4.30;;;12.20;99.90;;;12.80;50.94;99902.41;4866092;28;98431;-60
2023/12/01 00:57:28;;;;;;;8.27;4.87;;;12.40;99.90;;;12.90;50.37;99897.44;4872970;28;97920;-55
2023/12/01 00:59:54;;;;;;;6.23;3.77;;;12.50;99.90;;;13.05;50.46;99896.56;4868819;28;97728;-57
2023/12/01 01:02:20;;;;;;;22.13;10.13;;;12.70;99.90;;;12.67;42.33;99891.66;4852404;28;97975;-54
2023/12/01 01:04:45;;;;;;;13.10;7.67;;;12.10;99.90;;;12.45;48.34;99901.75;4872186;28;98667;-58
2023/12/01 01:07:12;;;;;;;7.83;4.23;;;11.50;99.90;;;12.47;51.35;99899.84;4872236;28;111704;-56
2023/12/01 01:09:38;;;;;;;7.67;4.10;;;11.40;99.90;;;12.49;51.53;99911.19;4874647;28;97720;-59
2023/12/01 01:12:04;;;;;;;7.40;4.17;;;11.50;99.90;;;12.53;51.30;99910.09;4873776;28;104393;-55
2023/12/01 01:14:30;;;;;;;7.83;4.33;;;11.50;99.90;;;12.49;51.41;99909.41;4874847;28;97515;-55
2023/12/01 01:16:56;;;;;;;8.20;4.53;;;11.50;99.90;;;12.52;51.19;99911.03;4873526;28;101938;-57
2023/12/01 01:19:21;;;;;;;16.10;7.90;;;11.60;99.90;;;12.39;48.67;99907.34;4875754;28;97506;-60
2023/12/01 01:21:48;;;;;;;9.57;5.13;;;11.40;99.90;;;12.27;50.81;99903.56;4872056;28;124550;-54
2023/12/01 01:24:14;;;;;;;7.90;4.27;;;11.20;99.90;;;12.25;52.02;99909.88;4872263;28;97504;-56
2023/12/01 01:26:39;;;;;;;10.83;5.93;;;11.20;99.90;;;12.32;50.36;99906.00;4870049;28;97419;-56
2023/12/01 01:29:05;;;;;;;15.10;7.90;;;11.20;99.90;;;12.25;48.21;99905.44;4872117;28;97574;-58
2023/12/01 01:31:31;;;;;;;13.97;6.77;;;11.20;99.90;;;12.17;50.59;99903.25;4876663;28;97809;-51
2023/12/01 01:33:57;;;;;;;8.07;4.20;;;11.00;99.90;;;12.09;52.04;99905.44;4867711;28;103401;-55
2023/12/01 01:36:23;;;;;;;8.40;4.70;;;10.90;99.90;;;11.87;52.20;99910.16;4869110;28;97461;-58
2023/12/01 01:38:49;;;;;;;18.53;8.00;;;10.60;99.90;;;11.72;49.53;99911.78;4849346;28;98553;-58
2023/12/01 01:41:15;;;;;;;22.23;10.87;;;10.40;99.90;;;11.59;48.30;99906.28;4861231;28;98633;-60
2023/12/01 01:43:41;;;;;;;7.33;4.47;;;10.30;99.90;;;11.68;53.58;99909.38;4860312;28;97340;-59
2023/12/01 01:46:14;;;;;;;10.97;5.67;;;10.30;99.90;;;11.53;51.92;99906.59;4869127;28;103647;-55
2023/12/01 01:48:42;;;;;;;9.53;5.23;;;10.20;99.90;;;11.49;53.24;99910.31;4851221;28;97752;-55
2023/12/01 01:51:09;;;;;;;18.63;9.17;;;10.10;99.90;;;11.67;50.74;99905.00;4866236;28;97594;-51
2023/12/01 01:53:38;;;;;;;17.30;8.63;;;10.50;99.90;;;11.55;50.60;99906.50;4866842;28;97985;-56
2023/12/01 01:56:05;;;;;;;11.83;7.03;;;10.30;99.90;;;11.50;52.59;99909.38;4850079;28;97207;-55
2023/12/01 01:58:31;;;;;;;19.70;9.03;;;10.20;99.90;;;11.58;48.10;99917.78;4851752;28;97428;-53
2023/12/01 02:00:57;;;;;;;8.57;5.07;;;10.40;99.90;;;11.65;53.81;99909.53;4867257;28;97292;-54
2023/12/01 02:03:23;;;;;;;10.70;5.87;;;10.40;99.90;;;11.69;52.29;99911.06;4867409;28;98698;-58
2023/12/01 02:05:50;;;;;;;13.70;6.40;;;10.50;99.90;;;11.77;51.64;99911.53;4866574;28;97513;-54
2023/12/01 02:08:29;;;;;;;9.47;5.20;;;10.60;99.90;;;11.70;53.37;99907.50;4868908;28;97387;-55
2023/12/01 02:10:57;;;;;;;9.70;4.53;;;10.50;99.90;;;11.76;53.49;99908.03;4868634;28;97856;-58
2023/12/01 02:13:24;;;;;;;8.07;4.50;;;10.50;99.90;;;11.69;53.34;99901.34;4868962;28;98823;-57
2023/12/01 02:15:51;;;;;;;16.97;8.57;;;10.40;99.90;;;11.90;52.34;99902.06;4868952;28;98061;-60
2023/12/01 02:18:30;;;;;;;12.10;6.00;;;10.90;99.90;;;11.94;52.19;99914.19;4865437;28;97469;-60
2023/12/01 02:20:57;;;;;;;7.40;4.20;;;10.90;99.90;;;11.97;52.95;99910.50;4875998;28;98314;-49
2023/12/01 02:23:24;;;;;;;7.53;3.97;;;10.90;99.90;;;12.10;52.57;99896.56;4893904;28;98146;-50
2023/12/01 02:25:50;;;;;;;7.20;4.40;;;11.00;99.90;;;12.54;51.93;99901.22;4892039;28;98064;-51
2023/12/01 02:28:17;;;;;;;9.20;4.27;;;11.70;99.90;;;12.91;50.87;99907.09;4878335;28;97512;-59
2023/12/01 02:30:52;;;;;;;6.40;3.90;;;12.50;99.90;;;13.30;49.63;99911.88;4896235;28;99653;-51
2023/12/01 02:33:19;;;;;;;6.67;4.10;;;13.10;99.90;;;13.52;48.94;99916.78;4902499;28;96991;-50
2023/12/01 02:35:50;;;;;;;8.37;4.27;;;13.50;99.90;;;13.72;48.46;99915.59;4904807;28;97262;-53
2023/12/01 02:38:17;;;;;;;8.90;4.60;;;13.80;99.90;;;13.78;48.15;99918.75;4907023;28;96946;-55
2023/12/01 02:40:49;;;;;;;14.53;7.33;;;13.80;99.90;;;13.62;43.50;99912.66;4900645;28;97578;-55
2023/12/01 02:43:16;;;;;;;11.37;5.80;;;13.40;99.90;;;13.67;47.15;99913.22;4900089;28;97315;-52
2023/12/01 02:45:43;;;;;;;5.90;3.43;;;13.40;99.90;;;13.62;48.52;99907.38;4899917;28;97176;-58
2023/12/01 02:48:08;;;;;;;6.00;4.03;;;13.20;99.90;;;13.65;48.52;99901.88;4896499;28;96979;-52
2023/12/01 02:50:35;;;;;;;7.63;4.10;;;13.30;99.90;;;13.58;47.54;99911.97;4899540;28;109057;-54
2023/12/01 02:53:01;;;;;;;16.70;9.00;;;13.20;99.90;;;13.42;42.83;99915.63;4905284;28;97305;-52
2023/12/01 02:55:28;;;;;;;15.83;9.30;;;12.90;99.90;;;13.12;41.32;99911.13;4901418;28;96735;-49
2023/12/01 02:57:57;;;;;;;7.60;4.23;;;12.50;99.90;;;13.19;49.40;99915.19;4892788;28;120227;-50
2023/12/01 03:00:24;;;;;;;8.67;4.83;;;12.50;99.90;;;12.95;49.18;99908.63;4894504;28;99541;-53
2023/12/01 03:02:51;;;;;;;8.13;4.20;;;12.10;99.90;;;12.98;50.19;99913.72;4893724;28;97379;-51
2023/12/01 03:05:18;;;;;;;5.57;3.27;;;12.20;99.90;;;13.11;49.66;99909.44;4898831;28;97184;-50
2023/12/01 03:07:44;;;;;;;6.47;3.87;;;12.50;99.90;;;13.19;49.66;99914.34;4887562;28;97364;-51
2023/12/01 03:10:10;;;;;;;7.67;4.60;;;12.70;99.90;;;13.09;49.23;99919.28;4900349;28;96905;-51
2023/12/01 03:12:38;;;;;;;6.23;3.77;;;12.60;99.90;;;13.06;49.68;99922.09;4876602;28;97452;-50
2023/12/01 03:15:06;;;;;;;20.33;10.13;;;12.40;99.90;;;12.82;44.05;99927.84;4892339;28;97430;-51
2023/12/01 03:17:32;;;;;;;12.23;6.57;;;12.00;99.90;;;12.60;47.34;99916.75;4899603;28;97177;-52
2023/12/01 03:19:59;;;;;;;20.73;8.90;;;11.50;99.90;;;12.15;43.79;99918.34;4894975;28;102421;-50
2023/12/01 03:22:25;;;;;;;9.27;4.53;;;11.00;99.90;;;12.18;51.52;99920.81;4901433;28;97432;-49
2023/12/01 03:24:53;;;;;;;6.00;4.07;;;10.90;99.90;;;12.19;51.96;99929.59;4895454;28;97466;-50
2023/12/01 03:27:25;;;;;;;6.80;4.43;;;10.90;99.90;;;12.13;51.88;99932.53;4899590;28;97174;-50
2023/12/01 03:29:52;;;;;;;9.63;5.07;;;10.90;99.90;;;12.22;51.95;99932.06;4899856;28;97285;-51
2023/12/01 03:32:19;;;;;;;7.17;4.03;;;11.00;99.90;;;12.25;51.76;99931.91;4893584;28;97502;-50
2023/12/01 03:34:44;;;;;;;6.93;3.53;;;11.20;99.90;;;12.17;52.06;99934.97;4876684;28;97224;-51
2023/12/01 03:37:11;;;;;;;8.70;4.40;;;11.00;99.90;;;12.37;51.85;99938.31;4899676;28;100891;-53
2023/12/01 03:39:36;;;;;;;7.53;4.53;;;11.40;99.90;;;12.47;51.19;99937.75;4896241;28;97731;-52
2023/12/01 03:42:04;;;;;;;7.77;4.00;;;11.60;99.90;;;12.54;51.33;99938.25;4895307;28;96830;-50
2023/12/01 03:44:30;;;;;;;8.70;5.00;;;11.70;99.90;;;12.61;50.81;99939.63;4901318;28;97214;-49
2023/12/01 03:46:56;;;;;;;8.00;4.37;;;11.80;99.90;;;12.63;51.01;99943.03;4892200;28;97068;-49
2023/12/01 03:49:21;;;;;;;8.60;4.17;;;11.80;99.90;;;12.65;50.69;99946.44;4898787;28;97200;-51
2023/12/01 03:51:47;;;;;;;14.37;7.77;;;11.80;99.90;;;12.51;45.68;99944.56;4882710;28;97319;-49
2023/12/01 03:54:13;;;;;;;7.40;3.97;;;11.60;99.90;;;12.34;51.62;99951.72;4891869;28;97720;-51
2023/12/01 03:56:39;;;;;;;6.87;3.43;;;11.20;99.90;;;12.49;51.43;99956.16;4892646;28;97514;-50
2023/12/01 03:59:09;;;;;;;15.17;8.20;;;11.50;99.90;;;12.45;46.66;99952.84;4893790;28;97929;-48
2023/12/01 04:01:39;;;;;;;11.37;5.77;;;11.50;99.90;;;12.20;49.46;99948.00;4898155;28;97132;-53
2023/12/01 04:04:05;;;;;;;15.63;7.73;;;11.00;99.90;;;12.06;47.22;99953.19;4894554;28;97084;-50
2023/12/01 04:06:34;;;;;;;7.53;4.57;;;10.80;99.90;;;11.99;51.24;99956.22;4886358;28;97163;-49
2023/12/01 04:09:05;;;;;;;7.60;4.07;;;10.70;99.90;;;12.11;52.43;99945.84;4894037;28;100189;-49
2023/12/01 04:11:32;;;;;;;11.80;5.23;;;10.90;99.90;;;12.03;51.99;99958.63;4894428;28;102409;-47
2023/12/01 04:13:58;;;;;;;7.73;4.20;;;10.90;99.90;;;11.97;51.91;99964.22;4898785;28;97437;-51
2023/12/01 04:16:24;;;;;;;6.67;4.47;;;10.80;99.90;;;11.95;52.49;99966.09;4901469;28;99295;-50
2023/12/01 04:18:52;;;;;;;7.20;3.50;;;10.70;99.90;;;12.21;52.11;99967.38;4902119;28;98324;-54
2023/12/01 04:21:18;;;;;;;4.20;3.10;;;11.30;99.90;;;12.37;52.00;99968.25;4898807;28;97740;-51
2023/12/01 04:23:44;;;;;;;7.97;3.97;;;11.50;99.90;;;12.34;50.89;99971.06;4904216;28;97798;-48
2023/12/01 04:26:12;;;;;;;10.33;5.27;;;11.40;99.90;;;12.11;50.26;99977.56;4903881;28;98979;-47
2023/12/01 04:28:41;;;;;;;7.50;3.67;;;11.10;99.90;;;12.16;51.50;99978.22;4896487;28;97555;-50
2023/12/01 04:31:06;;;;;;;7.67;4.30;;;11.00;99.90;;;12.22;49.03;99984.94;4898338;28;97410;-52
2023/12/01 04:33:32;;;;;;;7.43;4.40;;;11.20;99.90;;;12.17;51.58;99985.19;4898399;28;97113;-48
2023/12/01 04:35:58;;;;;;;5.03;3.70;;;11.00;99.90;;;12.25;52.28;99983.94;4893322;28;103763;-49
2023/12/01 04:38:24;;;;;;;6.37;3.30;;;11.10;99.90;;;12.36;52.11;99994.78;4895528;28;97059;-51
2023/12/01 04:40:50;;;;;;;7.57;3.40;;;11.40;99.90;;;12.83;50.90;99989.56;4902886;28;97144;-53
2023/12/01 04:43:19;;;;;;;6.47;3.77;;;12.20;99.90;;;13.21;49.77;99984.81;4901623;28;97154;-60
2023/12/01 04:45:45;;;;;;;5.57;3.50;;;12.90;99.90;;;13.42;49.06;99982.69;4896845;28;97646;-55
2023/12/01 04:48:10;;;;;;;6.00;3.70;;;13.30;99.90;;;13.69;48.25;99982.88;4909769;28;98649;-56
2023/12/01 04:50:46;;;;;;;6.37;2.70;;;13.70;99.90;;;13.87;47.69;99981.78;4907101;28;97367;-56
2023/12/01 04:53:12;;;;;;;5.17;3.17;;;13.90;99.90;;;14.09;47.27;99984.00;4896780;28;97080;-56
2023/12/01 04:55:38;;;;;;;5.57;3.87;;;14.20;99.90;;;14.31;46.91;99991.50;4905833;28;96836;-59
2023/12/01 04:58:05;;;;;;;5.67;3.47;;;14.50;99.90;;;14.44;46.50;100003.09;4907246;28;97177;-59
2023/12/01 05:00:31;;;;;;;5.27;3.57;;;14.60;99.90;;;14.56;45.72;99999.69;4902354;28;99340;-56
2023/12/01 05:03:05;;;;;;;5.97;3.53;;;14.80;99.90;;;14.70;45.65;100008.59;4901236;28;97132;-60
2023/12/01 05:05:34;;;;;;;5.03;3.20;;;14.90;99.90;;;14.78;45.54;100001.00;4896646;28;97532;-54
2023/12/01 05:08:04;;;;;;;5.33;3.50;;;15.00;99.90;;;14.79;45.45;99997.41;4894270;28;101020;-56
2023/12/01 05:10:35;;;;;;;5.70;3.07;;;15.00;99.90;;;14.77;45.15;99994.84;4899624;28;99783;-58
2023/12/01 05:13:05;;;;;;;7.00;3.60;;;15.00;99.90;;;14.57;44.09;100001.38;4904781;28;97039;-61
2023/12/01 05:15:33;;;;;;;6.93;3.37;;;14.60;99.90;;;14.39;45.72;100002.50;4901113;28;97455;-58
2023/12/01 05:18:01;;;;;;;5.10;3.07;;;14.30;99.90;;;14.17;45.93;100004.75;4904715;28;97694;-62
2023/12/01 05:20:28;;;;;;;7.43;4.43;;;13.80;99.90;;;14.02;46.32;100001.22;4903029;28;97099;-57
2023/12/01 05:22:59;;;;;;;6.73;4.33;;;13.50;99.90;;;13.72;46.38;100009.19;4900739;28;98482;-59
2023/12/01 05:25:32;;;;;;;5.87;3.87;;;12.90;99.90;;;13.46;46.28;100001.94;4897468;28;97446;-57
2023/12/01 05:28:00;;;;;;;4.33;2.83;;;12.40;99.90;;;13.30;48.62;100010.75;4900575;28;97368;-55
2023/12/01 05:30:28;;;;;;;4.17;3.03;;;12.20;99.90;;;13.36;48.97;100023.66;4889924;28;97887;-56
2023/12/01 05:32:56;;;;;;;4.63;2.70;;;12.50;99.90;;;13.20;48.53;100021.97;4898324;28;96961;-56
2023/12/01 05:35:22;;;;;;;5.57;3.23;;;12.30;99.90;;;13.19;48.94;100017.59;4866512;28;97169;-56
2023/12/01 05:37:51;;;;;;;4.97;3.07;;;12.40;99.90;;;13.31;48.81;100023.06;4900233;28;97169;-54
2023/12/01 05:40:20;;;;;;;5.77;3.40;;;12.70;99.90;;;13.26;48.65;100022.47;4895225;28;98416;-56
2023/12/01 05:42:48;;;;;;;4.80;3.10;;;12.60;99.90;;;13.15;47.60;100022.16;4902956;28;97041;-53
2023/12/01 05:45:15;;;;;;;9.13;4.30;;;12.40;99.90;;;12.87;47.14;100019.34;4896107;28;97204;-52
2023/12/01 05:47:46;;;;;;;6.23;3.83;;;11.90;99.90;;;12.62;47.97;100026.00;4889017;28;97363;-58
2023/12/01 05:50:14;;;;;;;7.50;3.87;;;11.50;99.90;;;12.50;49.39;100027.50;4884397;28;97004;-51
2023/12/01 05:52:43;;;;;;;8.87;4.77;;;11.30;99.90;;;12.40;49.41;100026.28;4882791;28;97435;-52
2023/12/01 05:55:20;;;;;;;7.40;4.30;;;11.10;99.90;;;12.25;46.74;100023.59;4899660;28;97732;-55
2023/12/01 05:58:01;;;;;;;6.40;3.40;;;10.90;99.90;;;12.13;50.38;100033.00;4903149;28;98059;-55
2023/12/01 06:00:29;;;;;;;5.50;3.23;;;10.80;99.90;;;12.09;51.61;100037.59;4901561;28;97163;-56
2023/12/01 06:02:58;;;;;;;4.07;2.77;;;10.70;99.90;;;12.15;52.13;100041.72;4898213;28;97120;-52
2023/12/01 06:05:24;;;;;;;4.33;2.43;;;10.90;99.90;;;12.24;51.89;100040.38;4900292;28;97338;-56
2023/12/01 06:07:58;;;;;;;3.27;2.50;;;11.20;99.90;;;12.48;51.42;100044.41;4892607;28;97636;-57
2023/12/01 06:10:26;;;;;;;9.70;5.30;;;11.70;99.90;;;12.48;46.78;100039.97;4895304;28;97114;-54
2023/12/01 06:12:54;;;;;;;4.73;3.03;;;11.80;99.90;;;12.31;49.92;100036.50;4890828;28;96949;-56
2023/12/01 06:15:20;;;;;;;5.90;3.03;;;11.30;99.90;;;12.34;50.21;100042.47;4890179;28;97824;-56
2023/12/01 06:17:48;;;;;;;4.47;2.97;;;11.30;99.90;;;12.35;50.84;100051.25;4896891;28;98452;-53
2023/12/01 06:20:17;;;;;;;4.63;2.67;;;11.30;99.90;;;12.36;51.29;100051.19;4904091;28;97256;-55
2023/12/01 06:22:48;;;;;;;5.33;2.80;;;11.40;99.90;;;12.32;51.05;100064.66;4903668;28;97443;-56
2023/12/01 06:25:17;;;;;;;3.87;2.53;;;11.30;99.90;;;12.50;51.34;100063.69;4902568;28;96866;-54
2023/12/01 06:27:43;;;;;;;4.87;3.13;;;11.70;99.90;;;12.44;49.55;100053.41;4898883;28;97450;-55
2023/12/01 06:30:13;;;;;;;5.70;2.87;;;11.70;99.90;;;12.40;51.05;100067.75;4898847;28;97428;-51
2023/12/01 06:32:44;;;;;;;4.07;2.30;;;11.50;99.90;;;12.50;50.91;100063.69;4896315;28;98575;-54
2023/12/01 06:35:15;;;;;;;4.07;2.63;;;11.60;99.90;;;12.60;50.92;100070.22;4905896;28;99235;-51
2023/12/01 06:37:43;;;;;;;4.40;2.47;;;11.80;99.90;;;12.63;50.77;100070.03;4903211;28;97537;-50
2023/12/01 06:40:15;;;;;;;4.40;2.27;;;11.80;99.90;;;12.70;50.05;100067.91;4899034;28;98768;-54
2023/12/01 06:42:42;;;;;;;4.73;2.90;;;11.90;99.90;;;12.80;49.36;100071.78;4893319;28;97393;-53
2023/12/01 06:45:13;;;;;;;3.83;2.47;;;12.20;99.90;;;12.97;50.03;100078.78;4893212;28;97256;-53
2023/12/01 06:47:46;;;;;;;3.80;2.20;;;12.40;99.90;;;13.08;49.37;100076.41;4894655;28;99385;-48
2023/12/01 06:50:16;;;;;;;3.97;2.67;;;12.60;99.90;;;13.26;49.31;100086.03;4877467;28;97366;-49
2023/12/01 06:52:50;;;;;;;5.30;3.00;;;12.90;99.90;;;13.38;48.90;100093.28;4899800;28;96875;-51
2023/12/01 06:55:16;;;;;;;3.60;2.27;;;13.10;99.90;;;13.35;48.88;100093.47;4894620;28;97151;-51
2023/12/01 06:57:45;;;;;;;3.97;2.07;;;12.90;99.90;;;13.54;48.44;100100.38;4901819;28;97043;-51
2023/12/01 07:02:51;;;;;;;4.70;2.30;;;13.20;99.90;;;13.58;48.05;100109.84;4899248;28;97083;-50
2023/12/01 07:05:19;;;;;;;3.07;2.07;;;13.20;99.90;;;13.74;47.73;100108.03;4897979;28;98758;-49
2023/12/01 07:07:47;;;;;;;4.27;2.60;;;13.50;99.90;;;13.82;47.20;100111.09;4900993;28;97336;-52
2023/12/01 07:10:14;;;;;;;3.07;2.20;;;13.60;99.90;;;13.86;47.34;100109.97;4901419;28;97136;-54
2023/12/01 07:12:40;;;;;;;3.37;2.33;;;13.70;99.90;;;13.78;47.38;100109.59;4902018;28;96886;-53
2023/12/01 07:15:11;;;;;;;3.80;3.03;;;13.50;99.90;;;13.76;45.28;100111.47;4893477;28;97298;-49
2023/12/01 07:17:38;;;;;;;2.93;1.93;;;13.40;99.90;;;13.88;47.37;100116.03;4900538;28;97224;-50
2023/12/01 07:20:17;;;;;;;4.53;2.63;;;13.60;99.90;;;14.00;47.12;100110.03;4897352;28;97273;-50
2023/12/01 07:22:48;;;;;;;2.87;2.00;;;13.80;99.90;;;14.15;46.83;100108.28;4898105;28;97165;-51
2023/12/01 07:25:22;;;;;;;4.93;2.50;;;14.10;99.90;;;14.39;46.05;100113.94;4898570;28;97186;-52
2023/12/01 07:28:00;;;;;;;3.43;2.27;;;14.40;99.90;;;14.58;45.74;100106.59;4893394;28;97558;-53
2023/12/01 07:30:27;;;;;;;4.27;2.30;;;14.70;99.90;;;14.71;45.12;100100.53;4878201;28;97620;-53
2023/12/01 07:32:53;;;;;;;3.90;2.13;;;14.90;99.90;;;14.80;44.39;100105.31;4893803;28;97205;-51
2023/12/01 07:35:20;;;;;;;3.20;1.93;;;15.00;99.90;;;14.91;44.20;100116.13;4897419;28;99215;-50
2023/12/01 07:37:48;;;;;;;4.00;2.50;;;15.10;99.90;;;14.98;43.91;100112.13;4894234;28;98163;-50
2023/12/01 07:40:23;;;;;;;4.90;2.43;;;15.20;99.90;;;15.05;43.74;100112.59;4894414;28;97525;-52
2023/12/01 07:42:51;;;;;;;4.10;2.00;;;15.30;99.90;;;15.11;43.45;100113.06;4894724;28;96734;-54
2023/12/01 07:45:18;;;;;;;3.93;2.40;;;15.40;99.90;;;15.14;43.65;100110.19;4869836;28;98525;-53
2023/12/01 07:47:49;;;;;;;5.67;2.73;;;15.50;99.90;;;15.17;43.06;100120.63;4874308;28;97873;-53
2023/12/01 07:50:17;;;;;;;2.63;1.80;;;15.50;99.90;;;15.22;43.15;100116.84;4891646;28;97395;-52
2023/12/01 07:52:47;;;;;;;2.63;1.63;;;15.50;99.90;;;15.23;43.11;100118.56;4893197;28;97432;-52
2023/12/01 07:55:13;;;;;;;2.87;2.03;;;15.50;99.90;;;15.22;43.14;100119.50;5006203;22;97210;-50
2023/12/01 07:57:39;;;;;;;4.13;2.50;;;15.40;99.90;;;15.21;43.28;100126.63;4937000;28;97604;-53
2023/12/01 08:00:16;;;;;;;3.13;1.83;;;15.50;99.90;;;15.26;43.14;100128.97;4934363;28;99943;-56
2023/12/01 08:02:47;;;;;;;2.83;1.80;;;15.50;99.90;;;15.30;43.23;100131.34;4936791;28;97332;-56
2023/12/01 08:05:16;;;;;;;4.50;2.50;;;15.60;99.90;;;15.28;42.81;100127.06;4924715;28;97144;-58
2023/12/01 08:07:44;;;;;;;6.50;3.93;;;15.50;99.90;;;14.99;36.52;100137.72;4918052;28;97926;-55
2023/12/01 08:10:14;;;;;;;2.67;1.80;;;15.10;94.00;;;14.91;43.76;100145.31;4911613;28;97080;-55
2023/12/01 08:12:42;;;;;;;3.67;2.17;;;14.80;99.90;;;15.00;43.67;100144.72;4881086;28;97309;-52
2023/12/01 08:15:09;;;;;;;3.00;1.80;;;15.00;99.90;;;15.07;43.61;100151.38;4910583;28;97401;-56
2023/12/01 08:17:35;;;;;;;3.30;1.97;;;15.20;99.90;;;15.10;43.29;100156.50;4914409;28;97435;-52
2023/12/01 08:20:00;;;;;;;2.77;1.90;;;15.30;99.90;;;15.15;43.21;100158.88;4914441;28;101250;-56
2023/12/01 08:22:27;;;;;;;4.97;2.37;;;15.40;99.90;;;15.13;43.10;100156.31;4908604;28;100281;-59
2023/12/01 08:24:53;;;;;;;2.87;2.00;;;15.40;99.90;;;14.97;43.42;100160.88;4869448;28;97145;-56
2023/12/01 08:27:19;;;;;;;3.00;2.20;;;15.00;99.90;;;15.02;43.16;100158.78;4906436;28;98014;-54
2023/12/01 08:29:45;;;;;;;4.00;1.83;;;15.10;99.90;;;15.02;43.22;100164.09;4885055;28;97435;-53
2023/12/01 08:32:11;;;;;;;2.80;1.70;;;15.10;99.90;;;15.08;43.30;100163.72;4910580;28;104145;-54
2023/12/01 08:34:36;;;;;;;3.47;1.73;;;15.20;99.90;;;15.11;43.46;100158.22;4907901;28;97566;-54
2023/12/01 08:37:03;;;;;;;3.43;1.93;;;15.40;99.90;;;15.15;43.23;100165.03;4916790;28;97461;-56
2023/12/01 08:39:30;;;;;;;2.60;1.87;;;15.40;99.90;;;15.23;43.14;100166.38;4910306;28;97216;-53
2023/12/01 08:41:56;;;;;;;3.37;1.63;;;15.60;99.90;;;15.27;42.82;100157.25;4908163;28;97239;-58
2023/12/01 08:44:22;;;;;;;2.80;1.63;;;15.50;99.90;;;15.27;42.28;100165.22;4899339;28;97226;-55
2023/12/01 08:46:48;;;;;;;3.47;1.80;;;15.50;99.90;;;15.29;42.52;100165.97;4907810;28;97381;-55
2023/12/01 08:49:14;;;;;;;3.17;1.70;;;15.50;99.90;;;15.23;42.43;100161.91;4909069;28;97199;-56
2023/12/01 08:51:40;;;;;;;2.33;1.43;;;15.50;99.90;;;15.32;42.38;100165.78;4909489;28;97436;-53
2023/12/01 08:54:05;;;;;;;3.30;1.97;;;15.60;99.90;;;15.31;42.01;100170.25;4904598;28;97538;-58
2023/12/01 08:56:33;;;;;;;3.53;1.60;;;15.50;99.90;;;15.33;42.42;100172.78;4914953;28;98393;-56
2023/12/01 08:58:59;;;;;;;2.83;1.63;;;15.50;99.90;;;15.36;42.33;100172.63;4921391;28;97910;-52
2023/12/01 09:01:25;;;;;;;3.00;1.63;;;15.60;99.90;;;15.40;42.37;100176.78;4919165;28;97410;-59
2023/12/01 09:03:50;;;;;;;2.83;1.47;;;15.70;99.90;;;15.41;42.09;100171.38;4910162;28;97355;-55
2023/12/01 09:06:16;;;;;;;2.53;1.50;;;15.70;99.90;;;15.45;42.31;100172.03;4913907;28;114929;-57
2023/12/01 09:08:42;;;;;;;2.73;1.57;;;15.70;99.90;;;15.38;42.04;100170.72;4913133;28;111934;-55
2023/12/01 09:11:08;;;;;;;3.20;1.60;;;15.60;99.90;;;15.39;42.39;100172.44;4911826;28;97264;-55
2023/12/01 09:13:34;;;;;;;3.27;1.90;;;15.60;99.90;;;15.42;42.29;100173.06;4918664;28;97187;-56
2023/12/01 09:16:00;;;;;;;2.87;1.50;;;15.60;99.90;;;15.43;42.30;100179.25;4914423;28;98117;-58
2023/12/01 09:18:29;;;;;;;3.53;1.17;;;15.70;99.90;;;15.44;42.25;100176.50;4917370;28;98170;-56
2023/12/01 09:20:55;;;;;;;2.40;1.40;;;15.70;99.90;;;15.49;42.26;100184.19;4917597;28;97573;-58
2023/12/01 09:23:21;;;;;;;2.63;1.57;;;15.80;99.90;;;15.51;42.04;100171.66;4912908;28;97281;-53
2023/12/01 09:25:48;;;;;;;2.17;1.30;;;15.80;99.90;;;15.53;42.05;100185.69;4921700;28;97486;-54
2023/12/01 09:28:14;;;;;;;2.10;1.10;;;15.80;99.90;;;15.53;41.42;100185.69;4911850;28;97360;-56
2023/12/01 09:30:40;;;;;;;1.60;1.27;;;15.80;99.90;;;15.44;42.07;100192.44;4913393;28;97361;-56
2023/12/01 09:33:06;;;;;;;1.87;1.40;;;15.60;99.90;;;15.42;42.23;100190.84;4915798;28;97296;-57
2023/12/01 09:35:32;;;;;;;2.80;1.43;;;15.60;99.90;;;15.44;42.09;100196.91;4903918;28;106412;-55
2023/12/01 09:37:58;;;;;;;2.10;1.20;;;15.70;99.90;;;15.45;42.11;100196.78;4915401;28;97671;-55
2023/12/01 09:40:24;;;;;;;3.43;1.47;;;15.70;99.90;;;15.45;42.17;100198.59;4918209;28;97561;-55
2023/12/01 09:42:50;;;;;;;3.27;1.80;;;15.70;99.90;;;15.44;41.63;100197.75;4912025;28;97596;-56
2023/12/01 09:45:23;;;;;;;2.10;1.33;;;15.70;99.90;;;15.41;42.11;100195.28;4910653;28;97087;-52
2023/12/01 09:47:59;;;;;;;2.17;1.30;;;15.70;99.90;;;15.45;42.24;100203.91;4917997;28;97044;-53
2023/12/01 09:50:25;;;;;;;2.10;1.27;;;15.70;99.90;;;15.45;41.85;100209.22;4895630;28;97165;-56
2023/12/01 09:52:52;;;;;;;2.07;1.30;;;15.70;99.90;;;15.40;41.94;100206.03;4917510;28;97125;-57
2023/12/01 09:55:19;;;;;;;2.50;1.57;;;15.60;99.90;;;15.40;42.11;100206.88;4911560;28;97584;-55
2023/12/01 09:57:45;;;;;;;4.07;1.73;;;15.60;99.90;;;15.42;41.80;100204.13;4918291;28;97388;-56
2023/12/01 10:00:12;;;;;;;3.40;2.23;;;15.60;99.90;;;15.32;40.80;100213.59;4916963;28;97080;-55
2023/12/01 10:02:38;;;;;;;3.53;1.87;;;15.50;99.10;;;15.34;42.37;100212.59;4908467;28;97566;-59
2023/12/01 10:05:13;;;;;;;2.13;1.67;;;15.50;99.90;;;15.39;42.13;100217.59;4921475;28;97439;-54
2023/12/01 10:07:40;;;;;;;4.17;1.57;;;15.50;99.90;;;15.36;42.44;100216.00;4900415;28;101113;-59
2023/12/01 10:10:24;;;;;;;3.20;1.60;;;15.60;99.90;;;15.38;42.56;100215.91;4900621;28;97287;-56
2023/12/01 10:12:59;;;;;;;2.87;1.80;;;15.70;99.90;;;15.44;42.15;100218.16;4912413;28;97065;-56
2023/12/01 10:15:26;;;;;;;2.73;1.73;;;15.70;99.90;;;15.41;42.12;100207.72;4915717;28;97353;-51
2023/12/01 10:18:11;;;;;;;2.50;1.70;;;15.70;99.90;;;15.43;42.13;100205.81;4915218;28;99663;-60
2023/12/01 10:20:39;;;;;;;2.53;1.40;;;15.70;99.90;;;15.44;41.99;100211.03;4913890;28;99940;-60
2023/12/01 10:23:18;;;;;;;2.03;1.27;;;15.80;99.90;;;15.43;41.58;100211.13;4921663;28;96746;-53
2023/12/01 10:25:51;;;;;;;2.67;1.70;;;15.70;99.90;;;15.45;41.65;100210.09;4908424;28;100512;-55
2023/12/01 10:28:18;;;;;;;2.77;1.40;;;15.70;99.90;;;15.48;41.85;100214.38;4911315;28;97077;-56
2023/12/01 10:30:57;;;;;;;2.70;1.57;;;15.80;99.90;;;15.47;41.69;100210.00;4901314;28;97528;-54
2023/12/01 10:33:26;;;;;;;2.37;1.47;;;15.80;99.90;;;15.47;41.70;100212.66;4916211;28;97260;-56
2023/12/01 10:36:10;;;;;;;2.60;1.30;;;15.80;99.90;;;15.49;41.51;100210.78;4907936;28;101660;-52